Time;durP1;ratioP1;P1;durP2;ratioP2;P2;SDS_P1;SDS_P2;PMS_P1;PMS_P2;Temp;Humidity;BMP_temperature;BMP_pressure;BME280_temperature;BME280_humidity;BME280_pressure;Samples;Min_cycle;Max_cycle;Signal;HPM_P1;HPM_P2
2022/11/01 00:00:37;;;;;;;66.20;42.30;;;13.10;99.90;;;13.16;100.00;101132.53;4915434;29;20607;-70
2022/11/01 00:03:07;;;;;;;64.57;39.57;;;13.00;99.90;;;13.15;100.00;101130.00;4920746;29;20866;-70
2022/11/01 00:05:36;;;;;;;67.07;39.23;;;13.00;99.90;;;13.26;100.00;101124.75;4920029;29;20431;-70
2022/11/01 00:08:05;;;;;;;63.90;41.47;;;13.10;99.90;;;13.25;100.00;101124.97;4914986;29;20441;-70
2022/11/01 00:10:34;;;;;;;58.83;38.70;;;13.10;99.90;;;13.23;100.00;101110.75;4915316;29;20440;-70
2022/11/01 00:13:03;;;;;;;70.90;41.43;;;13.10;99.90;;;13.40;100.00;101114.69;4901582;29;20454;-69
2022/11/01 00:15:32;;;;;;;62.63;39.67;;;13.20;99.90;;;13.33;100.00;101114.69;4921377;29;20497;-69
2022/11/01 00:18:01;;;;;;;60.87;39.50;;;13.20;99.90;;;13.27;100.00;101093.78;4907953;29;20781;-70
2022/11/01 00:20:31;;;;;;;54.40;39.97;;;13.20;99.90;;;13.28;100.00;101090.03;4915215;29;20411;-70
2022/11/01 00:23:00;;;;;;;79.00;41.80;;;13.20;99.90;;;13.27;100.00;101080.22;4909543;29;20881;-69
2022/11/01 00:25:29;;;;;;;64.20;39.97;;;13.20;99.90;;;13.35;100.00;101063.69;4919448;29;20485;-69
2022/11/01 00:27:58;;;;;;;65.20;38.33;;;13.20;99.90;;;13.35;100.00;101058.25;4897821;29;20420;-69
2022/11/01 00:30:28;;;;;;;68.00;42.80;;;13.20;99.90;;;13.37;100.00;101058.84;4916358;29;20467;-69
2022/11/01 00:32:58;;;;;;;67.97;38.27;;;13.20;99.90;;;13.37;100.00;101060.72;4917495;29;20806;-69
2022/11/01 00:35:26;;;;;;;65.87;41.03;;;13.20;99.90;;;13.51;100.00;101072.38;4922645;29;20972;-69
2022/11/01 00:37:58;;;;;;;75.53;44.20;;;13.30;99.90;;;13.73;100.00;101073.72;4922376;29;20867;-69
2022/11/01 00:40:27;;;;;;;77.00;43.20;;;13.50;99.90;;;13.62;100.00;101079.84;4922620;29;20949;-69
2022/11/01 00:42:56;;;;;;;67.47;40.77;;;13.40;99.90;;;13.69;100.00;101076.06;4922364;29;20424;-70
2022/11/01 00:45:25;;;;;;;60.43;41.67;;;13.40;99.90;;;13.53;100.00;101075.72;4922861;29;20899;-68
2022/11/01 00:47:54;;;;;;;49.70;36.07;;;13.40;99.90;;;13.50;100.00;101066.13;4909303;29;20447;-69
2022/11/01 00:50:23;;;;;;;47.60;32.70;;;13.40;99.90;;;14.01;100.00;101086.91;4910383;29;20433;-69
2022/11/01 00:52:52;;;;;;;63.73;40.20;;;13.60;99.90;;;14.09;100.00;101092.09;4920757;29;20464;-69
2022/11/01 00:55:22;;;;;;;54.00;38.93;;;13.80;99.90;;;13.71;100.00;101073.09;4922348;29;20461;-70
2022/11/01 00:57:51;;;;;;;63.87;38.37;;;13.60;99.90;;;13.87;100.00;101083.47;4919484;29;20426;-69
2022/11/01 01:00:20;;;;;;;54.50;35.10;;;13.60;99.90;;;13.52;100.00;101072.16;4916114;29;20404;-69
2022/11/01 01:02:49;;;;;;;59.70;39.83;;;13.50;99.90;;;13.47;100.00;101069.25;4920737;29;20426;-68
2022/11/01 01:05:18;;;;;;;56.50;36.07;;;13.40;99.90;;;13.35;100.00;101066.41;4921455;29;20477;-69
2022/11/01 01:07:47;;;;;;;63.67;37.00;;;13.30;99.90;;;13.35;100.00;101062.84;4921037;29;20426;-69
2022/11/01 01:10:16;;;;;;;57.60;36.57;;;13.30;99.90;;;13.24;100.00;101050.75;4920700;29;20429;-69
2022/11/01 01:12:46;;;;;;;54.03;37.07;;;13.20;99.90;;;13.18;100.00;101046.19;4922941;29;20430;-69
2022/11/01 01:15:15;;;;;;;58.97;39.17;;;13.10;99.90;;;13.17;100.00;101039.06;4921774;29;20661;-70
2022/11/01 01:17:44;;;;;;;53.23;36.77;;;13.10;99.90;;;13.10;100.00;101048.28;4914825;29;20439;-69
2022/11/01 01:20:14;;;;;;;54.17;37.60;;;13.00;99.90;;;13.04;100.00;101030.94;4916763;29;20448;-69
2022/11/01 01:22:42;;;;;;;66.23;36.93;;;13.00;99.90;;;13.11;100.00;101017.34;4914703;29;20440;-69
2022/11/01 01:25:11;;;;;;;56.47;38.90;;;13.00;99.90;;;13.03;100.00;101011.09;4922810;29;20526;-69
2022/11/01 01:27:40;;;;;;;68.33;39.60;;;13.00;99.90;;;13.03;100.00;101005.66;4916657;29;20423;-69
2022/11/01 01:30:12;;;;;;;63.87;37.23;;;13.00;99.90;;;12.98;100.00;101004.63;4923562;29;20416;-69
2022/11/01 01:32:41;;;;;;;62.60;39.70;;;12.90;99.90;;;12.96;100.00;101004.03;4922899;29;20404;-69
2022/11/01 01:35:10;;;;;;;56.90;37.83;;;12.90;99.90;;;13.01;100.00;101001.50;4923151;29;20527;-69
2022/11/01 01:37:39;;;;;;;57.57;38.60;;;12.90;99.90;;;12.99;100.00;100992.72;4923374;29;20417;-69
2022/11/01 01:40:09;;;;;;;52.23;36.03;;;12.90;99.90;;;13.13;100.00;101010.66;4921503;29;20433;-69
2022/11/01 01:42:41;;;;;;;62.93;38.23;;;13.00;99.90;;;13.39;100.00;101043.16;4912982;29;20776;-69
2022/11/01 01:45:35;;;;;;;64.23;39.37;;;13.10;99.90;;;13.15;100.00;101030.31;4914518;29;20486;-69
2022/11/01 01:48:13;;;;;;;53.00;37.63;;;13.10;99.90;;;13.41;100.00;101051.91;4907735;29;20437;-68
2022/11/01 01:50:49;;;;;;;55.63;38.93;;;13.20;99.90;;;13.63;100.00;101063.31;4921002;29;20487;-68
2022/11/01 01:53:25;;;;;;;55.70;39.70;;;13.40;99.90;;;13.37;100.00;101056.13;4921669;29;20436;-68
2022/11/01 01:56:01;;;;;;;52.73;36.63;;;13.30;99.90;;;13.17;100.00;101047.22;4921207;29;20430;-68
2022/11/01 01:58:35;;;;;;;49.90;33.90;;;13.10;99.90;;;12.92;100.00;101032.69;4920262;29;20743;-69
2022/11/01 02:01:06;;;;;;;53.80;35.30;;;13.00;99.90;;;12.83;100.00;101021.19;4921521;29;20499;-68
2022/11/01 02:03:38;;;;;;;55.50;36.90;;;12.80;99.90;;;12.84;100.00;101022.03;4921603;29;20401;-68
2022/11/01 02:06:11;;;;;;;50.53;38.17;;;12.80;99.90;;;12.60;100.00;101010.81;4921217;29;20458;-69
2022/11/01 02:08:46;;;;;;;48.63;34.10;;;12.70;99.90;;;12.56;100.00;101020.44;4920958;29;20408;-69
2022/11/01 02:11:18;;;;;;;47.80;34.97;;;12.60;99.90;;;12.60;100.00;101002.69;4917087;29;20452;-69
2022/11/01 02:13:48;;;;;;;50.33;34.57;;;12.60;99.90;;;12.60;100.00;101005.41;4921293;29;20769;-69
2022/11/01 02:16:54;;;;;;;53.63;36.57;;;12.60;99.90;;;12.54;100.00;100984.53;4919821;29;20448;-69
2022/11/01 02:20:04;;;;;;;54.13;35.47;;;12.60;99.90;;;12.60;100.00;100978.25;4916069;29;20424;-69
2022/11/01 02:23:18;;;;;;;60.97;35.90;;;12.60;99.90;;;12.66;100.00;100960.28;4907322;29;20424;-70
2022/11/01 02:26:09;;;;;;;57.33;37.47;;;12.60;99.90;;;12.72;100.00;100961.31;4920227;29;20480;-69
2022/11/01 02:29:03;;;;;;;53.33;36.30;;;12.70;99.90;;;12.73;100.00;100960.25;4923047;29;20418;-70
2022/11/01 02:32:07;;;;;;;55.83;38.13;;;12.70;99.90;;;12.74;100.00;100956.47;4918028;29;20444;-69
2022/11/01 02:34:46;;;;;;;53.33;36.37;;;12.70;99.90;;;12.75;100.00;100960.84;4920634;29;20438;-69
2022/11/01 02:37:26;;;;;;;58.30;36.43;;;12.70;99.90;;;12.73;100.00;100960.25;4917698;29;20445;-68
2022/11/01 02:40:02;;;;;;;49.60;34.83;;;12.60;99.90;;;12.79;100.00;100948.50;4922949;29;20779;-69
2022/11/01 02:42:38;;;;;;;63.03;41.20;;;12.70;99.90;;;12.74;100.00;100951.03;4922317;29;20422;-68
2022/11/01 02:45:27;;;;;;;55.70;38.50;;;12.70;99.90;;;12.72;100.00;100945.00;4921626;29;20547;-69
2022/11/01 02:48:00;;;;;;;59.80;37.70;;;12.70;99.90;;;12.77;100.00;100940.59;4922304;29;20438;-69
2022/11/01 02:50:37;;;;;;;61.37;38.80;;;12.70;99.90;;;12.68;100.00;100933.75;4922386;29;20444;-69
2022/11/01 02:53:06;;;;;;;55.90;37.20;;;12.60;99.90;;;12.64;100.00;100935.19;4912372;29;20412;-69
2022/11/01 02:55:35;;;;;;;52.83;37.20;;;12.60;99.90;;;12.63;100.00;100934.38;4921845;29;20467;-69
2022/11/01 02:58:07;;;;;;;60.17;39.77;;;12.60;99.90;;;12.61;100.00;100933.75;4905129;29;20445;-69
2022/11/01 03:00:37;;;;;;;48.93;35.17;;;12.50;99.90;;;12.58;100.00;100925.22;4923006;29;20443;-69
2022/11/01 03:03:18;;;;;;;61.23;41.60;;;12.50;99.90;;;12.64;100.00;100927.91;4922310;29;20479;-70
2022/11/01 03:06:02;;;;;;;54.67;37.07;;;12.50;99.90;;;12.61;100.00;100928.34;4922006;29;20458;-70
2022/11/01 03:08:38;;;;;;;64.17;39.60;;;12.50;99.90;;;12.72;100.00;100926.00;4914189;29;20414;-69
2022/11/01 03:11:12;;;;;;;54.00;39.03;;;12.60;99.90;;;12.64;100.00;100925.19;4916331;29;20506;-69
2022/11/01 03:13:59;;;;;;;61.77;39.03;;;12.60;99.90;;;12.67;100.00;100926.66;4921592;29;20417;-69
2022/11/01 03:16:36;;;;;;;62.27;39.80;;;12.50;99.90;;;12.72;100.00;100942.28;4922030;29;20434;-69
2022/11/01 03:19:28;;;;;;;59.23;40.67;;;12.60;99.90;;;12.73;100.00;100938.53;4921909;29;20432;-69
2022/11/01 03:22:07;;;;;;;54.87;37.57;;;12.60;99.90;;;12.57;100.00;100924.38;4915964;29;20490;-69
2022/11/01 03:24:45;;;;;;;60.43;38.53;;;12.50;99.90;;;12.55;100.00;100928.34;4920111;29;20520;-69
2022/11/01 03:27:28;;;;;;;60.43;39.37;;;12.50;99.90;;;12.53;100.00;100928.59;4910427;29;20518;-69
2022/11/01 03:30:02;;;;;;;55.57;38.70;;;12.50;99.90;;;12.45;100.00;100931.50;4921731;29;20909;-70
2022/11/01 03:32:38;;;;;;;51.20;38.00;;;12.40;99.90;;;12.57;100.00;100929.81;4921919;29;20437;-69
2022/11/01 03:35:17;;;;;;;54.87;38.20;;;12.40;99.90;;;12.57;100.00;100946.09;4921906;29;20460;-69
2022/11/01 03:37:50;;;;;;;48.47;34.40;;;12.40;99.90;;;12.64;100.00;100952.34;4921058;29;20436;-69
2022/11/01 03:40:21;;;;;;;57.67;38.30;;;12.50;99.90;;;12.99;100.00;100955.53;4920995;29;20420;-70
2022/11/01 03:42:54;;;;;;;58.73;35.13;;;12.80;99.90;;;12.83;100.00;100952.50;4921174;29;20517;-69
2022/11/01 03:45:27;;;;;;;56.93;36.67;;;12.70;99.90;;;12.57;100.00;100940.69;4908717;29;20447;-70
2022/11/01 03:47:56;;;;;;;54.83;34.73;;;12.60;99.90;;;12.44;100.00;100943.41;4916934;29;20495;-69
2022/11/01 03:50:28;;;;;;;49.67;37.00;;;12.50;99.90;;;12.37;100.00;100939.91;4918643;29;20423;-69
2022/11/01 03:52:58;;;;;;;45.97;35.67;;;12.40;99.90;;;12.45;100.00;100942.38;4922750;29;20882;-68
2022/11/01 03:55:27;;;;;;;57.50;37.43;;;12.40;99.90;;;12.54;100.00;100938.38;4912700;29;20815;-69
2022/11/01 03:57:58;;;;;;;57.07;38.80;;;12.50;99.90;;;12.36;100.00;100943.66;4919086;29;20466;-68
2022/11/01 04:00:30;;;;;;;50.00;32.67;;;12.40;99.90;;;12.73;100.00;100943.97;4914607;29;20405;-70
2022/11/01 04:03:01;;;;;;;45.13;36.17;;;12.50;99.90;;;12.35;100.00;100936.53;4919791;29;20436;-68
2022/11/01 04:05:34;;;;;;;47.57;32.20;;;12.40;99.90;;;12.28;100.00;100930.31;4915546;29;20537;-69
2022/11/01 04:08:03;;;;;;;49.30;33.47;;;12.30;99.90;;;12.25;100.00;100928.00;4905696;29;20418;-69
2022/11/01 04:10:33;;;;;;;53.40;35.07;;;12.30;99.90;;;12.12;100.00;100928.88;4910101;29;20412;-69
2022/11/01 04:13:02;;;;;;;46.77;35.90;;;12.20;99.90;;;12.16;100.00;100915.72;4917537;29;20404;-68
2022/11/01 04:21:16;;;;;;;42.80;32.47;;;12.20;99.90;;;12.14;100.00;100918.66;4924204;29;20766;-70
2022/11/01 04:23:46;;;;;;;41.43;35.70;;;12.20;99.90;;;12.25;100.00;100925.31;4905423;29;20731;-69
2022/11/01 04:26:18;;;;;;;46.63;34.10;;;12.20;99.90;;;12.49;100.00;100927.31;4920623;29;20443;-68
2022/11/01 04:28:55;;;;;;;50.67;37.77;;;12.30;99.90;;;12.75;100.00;100925.56;4913571;29;20931;-70
2022/11/01 04:31:28;;;;;;;53.93;35.70;;;12.50;99.90;;;12.83;100.00;100934.28;4925954;29;20806;-70
2022/11/01 04:33:59;;;;;;;52.37;36.10;;;12.70;99.90;;;12.78;100.00;100941.44;4923321;29;20420;-69
2022/11/01 04:36:29;;;;;;;46.00;34.10;;;12.60;99.90;;;13.17;100.00;100943.97;4922133;29;20460;-69
2022/11/01 04:38:58;;;;;;;45.60;31.67;;;12.80;99.90;;;13.05;100.00;100940.25;4920553;29;20412;-69
2022/11/01 04:41:29;;;;;;;47.77;34.57;;;12.90;99.90;;;12.95;100.00;100939.88;4911627;29;20430;-69
2022/11/01 04:43:59;;;;;;;44.80;32.00;;;12.90;99.90;;;12.52;100.00;100921.47;4925420;29;20448;-69
2022/11/01 04:46:31;;;;;;;45.40;33.87;;;12.60;99.90;;;12.33;100.00;100922.38;4924610;29;20973;-69
2022/11/01 04:48:59;;;;;;;43.60;33.20;;;12.40;99.90;;;12.19;100.00;100910.72;4925143;29;20437;-69
2022/11/01 04:51:30;;;;;;;47.37;33.20;;;12.30;99.90;;;12.11;100.00;100931.81;4924639;29;20436;-70
2022/11/01 04:53:58;;;;;;;47.40;32.37;;;12.20;99.90;;;12.43;100.00;100928.19;4925076;29;20439;-69
2022/11/01 04:56:27;;;;;;;46.57;32.83;;;12.40;99.90;;;12.28;100.00;100924.91;4924289;29;20431;-69
2022/11/01 04:58:58;;;;;;;46.53;32.10;;;12.30;99.90;;;12.24;100.00;100922.81;4907780;29;20452;-70
2022/11/01 05:01:26;;;;;;;44.73;34.10;;;12.20;99.90;;;12.62;100.00;100921.03;4924556;29;20416;-69
2022/11/01 05:03:55;;;;;;;45.37;32.93;;;12.40;99.90;;;12.39;100.00;100904.41;4918589;29;20439;-70
2022/11/01 05:06:24;;;;;;;40.93;31.67;;;12.30;99.90;;;12.50;100.00;100911.88;4918195;29;20469;-70
2022/11/01 05:08:56;;;;;;;49.17;31.77;;;12.40;99.90;;;12.54;100.00;100902.25;4926465;29;20408;-69
2022/11/01 05:11:25;;;;;;;47.80;33.67;;;12.50;99.90;;;12.62;100.00;100905.56;4924089;29;20446;-69
2022/11/01 05:13:54;;;;;;;41.47;29.93;;;12.50;99.90;;;12.77;100.00;100908.03;4919580;29;20951;-69
2022/11/01 05:16:22;;;;;;;49.83;34.13;;;12.60;99.90;;;12.59;100.00;100905.97;4915226;29;20424;-69
2022/11/01 05:18:51;;;;;;;58.10;36.40;;;12.50;99.90;;;12.83;100.00;100907.13;4922943;29;20416;-69
2022/11/01 05:21:20;;;;;;;60.07;36.20;;;12.60;99.90;;;12.55;100.00;100898.50;4922275;29;20412;-69
2022/11/01 05:23:50;;;;;;;48.50;32.90;;;12.60;99.90;;;12.51;100.00;100891.81;4912276;29;20697;-69
2022/11/01 05:26:21;;;;;;;51.77;33.17;;;12.50;99.90;;;12.58;100.00;100898.91;4923701;29;20468;-69
2022/11/01 05:28:49;;;;;;;49.53;32.57;;;12.50;99.90;;;12.57;100.00;100897.25;4918236;29;20415;-69
2022/11/01 05:31:18;;;;;;;51.33;34.70;;;12.50;99.90;;;12.54;100.00;100892.22;4924299;29;20419;-70
2022/11/01 05:33:47;;;;;;;46.77;32.77;;;12.50;99.90;;;12.37;100.00;100869.34;4907881;29;20929;-70
2022/11/01 05:36:16;;;;;;;48.53;33.53;;;12.40;99.90;;;12.41;100.00;100867.84;4940314;23;20969;-70
2022/11/01 05:38:44;;;;;;;50.70;35.30;;;12.30;99.90;;;12.50;100.00;100885.56;4904602;29;20465;-70
2022/11/01 05:41:13;;;;;;;69.23;36.27;;;12.40;99.90;;;12.64;100.00;100897.19;4909779;29;20411;-69
2022/11/01 05:43:43;;;;;;;45.83;31.40;;;12.60;99.90;;;12.43;100.00;100871.19;4899432;29;20443;-70
2022/11/01 05:46:12;;;;;;;52.80;34.57;;;12.50;99.90;;;12.92;100.00;100891.44;4910268;29;20546;-70
2022/11/01 05:48:42;;;;;;;47.60;35.50;;;12.70;99.90;;;13.00;100.00;100888.47;4902574;29;20424;-69
2022/11/01 05:51:11;;;;;;;54.03;34.87;;;12.80;99.90;;;12.69;100.00;100883.81;4906328;29;20784;-70
2022/11/01 05:53:40;;;;;;;43.30;33.70;;;12.60;99.90;;;12.83;100.00;100895.47;4911412;29;20860;-70
2022/11/01 05:56:09;;;;;;;49.03;34.13;;;12.70;99.90;;;12.54;100.00;100881.38;4903534;29;20436;-70
2022/11/01 05:58:37;;;;;;;43.37;31.13;;;12.50;99.90;;;12.51;100.00;100881.81;4906278;29;20439;-69
2022/11/01 06:01:08;;;;;;;48.53;30.57;;;12.40;99.90;;;12.70;100.00;100871.91;4904333;29;20450;-69
2022/11/01 06:03:37;;;;;;;44.97;31.47;;;12.50;99.90;;;13.22;100.00;100881.66;4910773;29;20444;-70
2022/11/01 06:06:07;;;;;;;48.33;33.97;;;12.80;99.90;;;13.10;100.00;100885.25;4914245;29;20464;-69
2022/11/01 06:08:35;;;;;;;48.60;30.43;;;12.90;99.90;;;13.08;100.00;100890.91;4906689;29;21010;-70
2022/11/01 06:11:06;;;;;;;53.30;31.77;;;12.80;99.90;;;12.88;100.00;100903.75;4910792;29;20408;-70
2022/11/01 06:13:35;;;;;;;47.63;33.40;;;12.80;99.90;;;12.68;100.00;100903.88;4903135;29;20414;-71
2022/11/01 06:16:08;;;;;;;41.23;29.50;;;12.70;99.90;;;12.96;100.00;100917.94;4911736;29;20483;-69
2022/11/01 06:18:36;;;;;;;46.90;30.57;;;12.80;99.90;;;12.78;100.00;100908.84;4908114;29;20919;-72
2022/11/01 06:21:06;;;;;;;45.47;31.80;;;12.70;99.90;;;12.75;100.00;100893.81;4906809;29;20442;-71
2022/11/01 06:23:34;;;;;;;48.00;28.60;;;12.70;99.90;;;12.64;100.00;100892.59;4908629;29;20416;-69
2022/11/01 06:26:06;;;;;;;48.70;33.60;;;12.60;99.90;;;12.78;100.00;100885.22;4904845;29;20435;-70
2022/11/01 06:28:35;;;;;;;39.40;31.83;;;12.60;99.90;;;13.08;100.00;100893.63;4899151;29;20440;-69
2022/11/01 06:31:05;;;;;;;44.07;30.37;;;12.70;99.90;;;12.93;100.00;100887.66;4906117;29;20517;-70
2022/11/01 06:33:40;;;;;;;46.37;30.43;;;12.80;99.90;;;12.90;100.00;100880.78;4902847;29;20444;-69
2022/11/01 06:36:09;;;;;;;40.93;30.50;;;12.80;99.90;;;12.73;100.00;100867.94;4912366;29;20449;-71
2022/11/01 06:38:38;;;;;;;34.33;27.27;;;12.60;99.90;;;12.87;100.00;100885.81;4905661;29;20894;-69
2022/11/01 06:41:07;;;;;;;48.90;28.93;;;12.70;99.90;;;12.89;100.00;100883.69;4911344;29;20449;-70
2022/11/01 06:43:36;;;;;;;38.97;29.00;;;12.80;99.90;;;12.90;100.00;100891.66;4905601;29;20427;-70
2022/11/01 06:46:05;;;;;;;41.50;31.07;;;12.70;99.90;;;12.88;100.00;100914.63;4910196;29;20448;-69
2022/11/01 06:48:34;;;;;;;38.43;28.80;;;12.70;99.90;;;12.72;100.00;100915.13;4908207;29;20458;-72
2022/11/01 06:51:05;;;;;;;46.27;29.77;;;12.70;99.90;;;12.93;100.00;100920.25;4910300;29;20461;-69
2022/11/01 06:53:34;;;;;;;39.77;28.20;;;12.70;99.90;;;12.92;100.00;100907.72;4903738;29;20423;-69
2022/11/01 06:56:03;;;;;;;47.50;29.90;;;12.70;99.90;;;13.00;100.00;100910.19;4908466;29;20439;-70
2022/11/01 06:58:32;;;;;;;38.03;30.37;;;12.80;99.90;;;13.14;100.00;100898.22;4904210;29;20440;-70
2022/11/01 07:01:02;;;;;;;43.47;29.77;;;12.90;99.90;;;13.01;100.00;100909.16;4901695;29;20858;-71
2022/11/01 07:03:31;;;;;;;39.73;30.27;;;12.90;99.90;;;13.25;100.00;100910.28;4908649;29;20416;-70
2022/11/01 07:06:00;;;;;;;36.50;28.83;;;13.00;99.90;;;13.06;100.00;100901.19;4908776;29;20977;-71
2022/11/01 07:08:31;;;;;;;37.40;28.33;;;13.00;99.90;;;13.00;100.00;100910.19;4897876;29;20436;-69
2022/11/01 07:10:59;;;;;;;42.03;29.37;;;12.90;99.90;;;13.03;100.00;100901.59;4909854;29;20430;-71
2022/11/01 07:13:32;;;;;;;41.73;28.00;;;12.90;99.90;;;13.41;100.00;100909.72;4916258;29;20408;-69
2022/11/01 07:16:03;;;;;;;38.63;27.50;;;13.10;99.90;;;13.28;100.00;100918.81;4905664;29;20926;-69
2022/11/01 07:18:33;;;;;;;40.70;28.97;;;13.10;99.90;;;13.23;100.00;100913.22;4913851;29;20770;-69
2022/11/01 07:21:03;;;;;;;39.67;27.10;;;13.10;99.90;;;13.34;100.00;100909.78;4910404;29;20885;-69
2022/11/01 07:23:34;;;;;;;37.80;30.97;;;13.10;99.90;;;14.02;100.00;100912.56;4912682;29;20412;-70
2022/11/01 07:26:03;;;;;;;33.30;24.50;;;13.50;99.90;;;13.77;100.00;100933.50;4909469;29;20883;-71
2022/11/01 07:28:32;;;;;;;37.67;25.40;;;13.50;99.90;;;13.95;100.00;100933.56;4918522;29;20494;-71
2022/11/01 07:31:01;;;;;;;31.13;27.10;;;13.60;99.90;;;13.91;100.00;100925.00;4911190;29;20437;-71
2022/11/01 07:33:30;;;;;;;41.53;26.87;;;13.60;99.90;;;13.80;100.00;100922.19;4909784;29;20548;-71
2022/11/01 07:35:58;;;;;;;29.87;24.80;;;13.60;99.90;;;13.95;100.00;100922.66;4912767;29;20572;-72
2022/11/01 07:38:28;;;;;;;33.83;25.90;;;13.60;99.90;;;14.11;100.00;100934.88;4917037;29;20408;-71
2022/11/01 07:40:58;;;;;;;33.47;24.87;;;13.70;99.90;;;14.00;100.00;100947.31;4905812;29;20408;-71
2022/11/01 07:43:27;;;;;;;35.43;25.43;;;13.70;99.90;;;14.12;100.00;100942.00;4910049;29;20442;-71
2022/11/01 07:45:59;;;;;;;32.90;25.10;;;13.80;99.90;;;14.33;100.00;100961.44;4913889;29;20474;-70
2022/11/01 07:48:28;;;;;;;29.70;22.40;;;14.00;99.90;;;14.54;98.00;100971.09;4902876;29;20511;-71
2022/11/01 07:50:57;;;;;;;35.67;24.70;;;14.10;99.90;;;14.44;95.83;100965.34;4912915;29;20505;-70
2022/11/01 07:53:26;;;;;;;31.67;24.30;;;14.10;99.90;;;14.17;96.94;100964.75;4916070;29;20421;-70
2022/11/01 07:55:57;;;;;;;29.77;24.20;;;14.00;99.90;;;14.16;96.46;100981.31;4910056;29;20469;-70
2022/11/01 07:58:25;;;;;;;34.63;23.60;;;14.00;99.90;;;14.01;97.22;100980.81;4909627;29;20517;-71
2022/11/01 08:00:54;;;;;;;29.07;23.03;;;13.90;99.90;;;14.09;97.66;100992.25;4907142;29;20416;-70
2022/11/01 08:03:23;;;;;;;33.03;22.40;;;13.90;99.90;;;14.16;97.17;100968.53;4909178;29;20412;-70
2022/11/01 08:05:53;;;;;;;30.77;23.77;;;13.90;99.90;;;14.34;97.02;100981.31;4903243;29;20556;-70
2022/11/01 08:08:22;;;;;;;33.83;22.97;;;14.00;99.90;;;14.35;96.48;100978.38;4904597;29;20449;-69
2022/11/01 08:10:51;;;;;;;26.30;21.23;;;14.00;99.90;;;14.28;95.85;100993.94;4903401;29;20441;-68
2022/11/01 08:13:23;;;;;;;30.77;22.70;;;14.00;99.90;;;14.15;96.03;100993.25;4902155;29;20408;-70
2022/11/01 08:15:53;;;;;;;29.13;22.80;;;13.90;99.90;;;14.20;96.01;100991.50;4906243;29;20450;-69
2022/11/01 08:18:24;;;;;;;29.13;21.23;;;14.00;99.90;;;14.20;95.18;100986.06;4906605;29;20442;-70
2022/11/01 08:20:53;;;;;;;26.80;21.47;;;14.00;99.90;;;14.21;94.92;100979.56;4910196;29;20448;-71
2022/11/01 08:23:22;;;;;;;25.07;20.53;;;14.00;99.90;;;14.35;96.01;100978.38;4896669;29;20847;-71
2022/11/01 08:25:51;;;;;;;30.80;22.77;;;14.00;99.90;;;14.49;95.38;100970.09;4896744;29;20440;-70
2022/11/01 08:28:22;;;;;;;26.40;21.60;;;14.10;99.90;;;14.90;93.34;100964.81;4906449;29;20484;-70
2022/11/01 08:30:51;;;;;;;29.40;22.70;;;14.30;99.90;;;14.94;91.97;100982.38;4908846;29;20885;-70
2022/11/01 08:33:20;;;;;;;23.83;20.27;;;14.60;99.90;;;14.84;90.78;100982.06;4908907;29;20419;-70
2022/11/01 08:35:49;;;;;;;27.43;21.00;;;14.60;99.90;;;14.83;90.73;100982.28;4906828;29;20451;-70
2022/11/01 08:38:19;;;;;;;28.30;20.50;;;14.60;99.90;;;14.84;90.65;100965.72;4899483;29;20409;-71
2022/11/01 08:40:48;;;;;;;26.60;21.40;;;14.50;99.90;;;14.78;90.40;100982.97;4897800;29;20416;-70
2022/11/01 08:43:17;;;;;;;29.30;23.43;;;14.50;99.90;;;14.94;90.63;100982.38;4908672;29;20408;-71
2022/11/01 08:45:48;;;;;;;31.90;21.07;;;14.60;99.90;;;15.21;89.55;101000.03;4908849;29;20461;-71
2022/11/01 08:48:17;;;;;;;33.10;21.50;;;14.80;99.90;;;15.15;88.23;100990.03;4911706;29;20444;-70
2022/11/01 08:50:46;;;;;;;30.93;21.13;;;14.90;99.90;;;15.23;88.02;100991.63;4908786;29;20820;-72
2022/11/01 08:53:15;;;;;;;28.90;20.20;;;15.00;99.90;;;15.21;87.69;100989.13;4910431;29;20575;-71
2022/11/01 08:55:44;;;;;;;29.57;18.80;;;14.90;99.90;;;15.37;87.54;100984.94;4912223;29;20465;-70
2022/11/01 08:58:13;;;;;;;26.00;18.23;;;15.00;99.90;;;15.70;86.14;100981.75;4905256;29;20504;-70
2022/11/01 09:00:43;;;;;;;31.53;18.00;;;15.20;99.90;;;15.70;84.81;100970.84;4903051;29;20470;-71
2022/11/01 09:03:14;;;;;;;25.70;17.70;;;15.30;99.90;;;15.86;84.34;100986.53;4910095;29;20970;-71
2022/11/01 09:05:43;;;;;;;24.83;19.73;;;15.40;99.90;;;15.94;83.37;100983.44;4902955;29;20799;-71
2022/11/01 09:08:12;;;;;;;33.23;18.37;;;15.50;99.90;;;16.09;82.97;100983.00;4910602;29;20994;-71
2022/11/01 09:10:41;;;;;;;29.70;19.40;;;15.60;1.00;;;16.32;81.65;100998.56;4902496;29;20865;-71
2022/11/01 09:13:09;;;;;;;22.80;17.70;;;15.90;1.00;;;16.36;80.73;100997.03;4887968;29;20797;-69
2022/11/01 09:15:39;;;;;;;22.80;17.17;;;15.90;1.00;;;16.32;80.58;100984.91;4899592;29;20448;-70
2022/11/01 09:18:08;;;;;;;19.80;16.23;;;15.90;1.00;;;16.41;81.14;100983.50;4917241;29;20923;-71
2022/11/01 09:20:38;;;;;;;21.80;17.60;;;16.00;1.00;;;16.24;80.56;100980.63;4908878;29;20441;-68
2022/11/01 09:23:07;;;;;;;20.23;17.57;;;16.00;99.90;;;16.50;81.67;100982.06;4911046;29;20731;-71
2022/11/01 09:25:36;;;;;;;20.10;18.00;;;16.10;1.00;;;16.57;79.69;100981.91;4906904;29;20491;-70
2022/11/01 09:28:05;;;;;;;23.37;17.80;;;16.10;1.00;;;16.51;78.98;100984.53;4916394;29;20437;-70
2022/11/01 09:30:34;;;;;;;28.37;18.10;;;16.10;99.90;;;16.82;78.51;100979.78;4900040;29;20466;-70
2022/11/01 09:33:07;;;;;;;24.30;19.07;;;16.30;99.90;;;16.77;78.45;100977.75;4904404;29;20461;-70
2022/11/01 09:35:36;;;;;;;27.03;21.33;;;16.40;99.90;;;16.67;78.41;100977.53;4903490;29;21145;-70
2022/11/01 09:38:06;;;;;;;24.17;18.33;;;16.40;99.90;;;16.73;79.35;100975.75;4896955;29;20882;-73
2022/11/01 09:40:44;;;;;;;30.70;22.10;;;16.40;99.90;;;16.67;78.53;100977.53;4902485;29;20411;-72
2022/11/01 09:43:21;;;;;;;31.80;21.10;;;16.30;99.90;;;16.63;78.38;100997.38;4895266;29;20898;-71
2022/11/01 09:45:53;;;;;;;27.47;18.77;;;16.20;99.90;;;16.90;78.73;101010.28;4909009;29;20539;-70
2022/11/01 09:48:24;;;;;;;22.83;19.60;;;16.40;99.90;;;17.08;78.23;101019.41;4908201;29;20470;-70
2022/11/01 09:50:53;;;;;;;31.20;19.47;;;16.60;99.90;;;17.08;76.67;101008.47;4905048;29;20442;-69
2022/11/01 09:53:29;;;;;;;28.23;19.63;;;16.60;30.10;;;17.01;77.11;101013.25;4905411;29;20480;-71
2022/11/01 09:56:09;;;;;;;18.37;15.03;;;16.70;9.80;;;16.80;78.33;101015.53;4912969;29;20968;-71
2022/11/01 09:58:57;;;;;;;28.33;16.40;;;16.50;50.70;;;17.00;77.04;101017.03;4916626;29;20441;-71
2022/11/01 10:01:41;;;;;;;19.53;15.60;;;16.70;1.00;;;16.94;77.41;101014.19;4916556;29;20809;-70
2022/11/01 10:04:53;;;;;;;27.13;15.90;;;16.70;2.20;;;17.02;77.90;101015.75;4899866;29;20407;-70
2022/11/01 10:07:36;;;;;;;18.17;15.60;;;16.60;27.00;;;17.41;76.33;101024.19;4898307;29;20447;-71
2022/11/01 10:10:26;;;;;;;22.67;16.30;;;16.90;1.00;;;17.37;76.67;101021.94;4898313;29;20928;-70
2022/11/01 10:13:26;;;;;;;27.53;16.00;;;17.10;1.00;;;17.51;76.57;101025.22;4898654;29;20536;-71
2022/11/01 10:16:08;;;;;;;19.47;14.77;;;17.10;1.00;;;17.57;76.49;101026.13;4901358;29;20448;-69
2022/11/01 10:18:49;;;;;;;18.33;15.10;;;17.20;1.00;;;17.53;76.34;101030.41;4899936;29;20409;-69
2022/11/01 10:21:21;;;;;;;29.70;17.47;;;17.20;1.00;;;17.48;76.81;101028.41;4897097;29;20444;-70